Time;durP1;ratioP1;P1;durP2;ratioP2;P2;SDS_P1;SDS_P2;PMS_P1;PMS_P2;Temp;Humidity;BMP_temperature;BMP_pressure;BME280_temperature;BME280_humidity;BME280_pressure;Samples;Min_cycle;Max_cycle;Signal;HPM_P1;HPM_P2
2020/09/22 00:00:47;;;;;;;19.4;17.35;;;;;;;13.1;83.3457;94980.44;;;;
2020/09/22 00:01:48;;;;;;;19.4;17.35;;;;;;;13.1;83.3457;94980.44;;;;
2020/09/22 00:02:48;;;;;;;19.4;17.35;;;;;;;13.1;83.3457;94980.44;;;;
2020/09/22 00:03:49;;;;;;;19.4;17.35;;;;;;;13.1;83.3457;94980.44;;;;
2020/09/22 00:04:49;;;;;;;19.4;17.35;;;;;;;13.1;83.3457;94980.44;;;;
2020/09/22 00:05:50;;;;;;;19.25;17.25;;;;;;;13.09;83.89258;94970.15;;;;
2020/09/22 00:06:50;;;;;;;19.25;17.25;;;;;;;13.09;83.89258;94970.15;;;;
2020/09/22 00:07:51;;;;;;;19.25;17.25;;;;;;;13.09;83.89258;94970.15;;;;
2020/09/22 00:08:51;;;;;;;19.25;17.25;;;;;;;13.09;83.89258;94970.15;;;;
2020/09/22 00:09:52;;;;;;;19.25;17.25;;;;;;;13.09;83.89258;94970.15;;;;
2020/09/22 00:10:53;;;;;;;19.25;17.25;;;;;;;13.09;83.89258;94970.15;;;;
2020/09/22 00:11:53;;;;;;;19.25;17.25;;;;;;;13.09;83.89258;94970.15;;;;
2020/09/22 00:12:55;;;;;;;19.25;17.25;;;;;;;13.09;83.89258;94970.15;;;;
2020/09/22 00:13:55;;;;;;;19.25;17.25;;;;;;;13.09;83.89258;94970.15;;;;
2020/09/22 00:14:56;;;;;;;19.25;17.25;;;;;;;13.09;83.89258;94970.15;;;;
2020/09/22 00:15:56;;;;;;;18.9;17;;;;;;;13;84.37695;94970.43;;;;
2020/09/22 00:16:57;;;;;;;18.9;17;;;;;;;13;84.37695;94970.43;;;;
2020/09/22 00:17:57;;;;;;;18.9;17;;;;;;;13;84.37695;94970.43;;;;
2020/09/22 00:18:58;;;;;;;18.9;17;;;;;;;13;84.37695;94970.43;;;;
2020/09/22 00:19:58;;;;;;;18.9;17;;;;;;;13;84.37695;94970.43;;;;
2020/09/22 00:20:58;;;;;;;18.9;17;;;;;;;13;84.37695;94970.43;;;;
2020/09/22 00:21:59;;;;;;;18.9;17;;;;;;;13;84.37695;94970.43;;;;
2020/09/22 00:22:59;;;;;;;18.9;17;;;;;;;13;84.37695;94970.43;;;;
2020/09/22 00:24:00;;;;;;;18.9;17;;;;;;;13;84.37695;94970.43;;;;
2020/09/22 00:25:00;;;;;;;18.9;17;;;;;;;13;84.37695;94970.43;;;;
2020/09/22 00:26:01;;;;;;;18.9;17;;;;;;;13;84.37695;94970.43;;;;
2020/09/22 00:27:01;;;;;;;17.75;15.9;;;;;;;12.98;84.80273;94969.87;;;;
2020/09/22 00:28:02;;;;;;;17.75;15.9;;;;;;;12.98;84.80273;94969.87;;;;
2020/09/22 00:29:02;;;;;;;17.75;15.9;;;;;;;12.98;84.80273;94969.87;;;;
2020/09/22 00:30:03;;;;;;;17.75;15.9;;;;;;;12.98;84.80273;94969.87;;;;
2020/09/22 00:31:03;;;;;;;17.75;15.9;;;;;;;12.98;84.80273;94969.87;;;;
2020/09/22 00:32:05;;;;;;;17.75;15.9;;;;;;;12.98;84.80273;94969.87;;;;
2020/09/22 00:33:05;;;;;;;17.75;15.9;;;;;;;12.98;84.80273;94969.87;;;;
2020/09/22 00:34:06;;;;;;;17.75;15.9;;;;;;;12.98;84.80273;94969.87;;;;
2020/09/22 00:35:06;;;;;;;17.75;15.9;;;;;;;12.98;84.80273;94969.87;;;;
2020/09/22 00:36:07;;;;;;;17.75;15.9;;;;;;;12.98;84.80273;94969.87;;;;
2020/09/22 00:37:07;;;;;;;18.4;16.4;;;;;;;12.89;85.18457;94965.88;;;;
2020/09/22 00:38:08;;;;;;;18.4;16.4;;;;;;;12.89;85.18457;94965.88;;;;
2020/09/22 00:39:08;;;;;;;18.4;16.4;;;;;;;12.89;85.18457;94965.88;;;;
2020/09/22 00:40:09;;;;;;;18.4;16.4;;;;;;;12.89;85.18457;94965.88;;;;
2020/09/22 00:41:09;;;;;;;18.4;16.4;;;;;;;12.89;85.18457;94965.88;;;;
2020/09/22 00:42:10;;;;;;;18.4;16.4;;;;;;;12.89;85.18457;94965.88;;;;
2020/09/22 00:43:10;;;;;;;18.4;16.4;;;;;;;12.89;85.18457;94965.88;;;;
2020/09/22 00:44:11;;;;;;;18.4;16.4;;;;;;;12.89;85.18457;94965.88;;;;
2020/09/22 00:45:11;;;;;;;18.4;16.4;;;;;;;12.89;85.18457;94965.88;;;;
2020/09/22 00:46:12;;;;;;;18.4;16.4;;;;;;;12.89;85.18457;94965.88;;;;
2020/09/22 00:47:14;;;;;;;18.4;16.4;;;;;;;12.89;85.18457;94965.88;;;;
2020/09/22 00:48:16;;;;;;;17.35;15.6;;;;;;;12.88;85.6084;94964.37;;;;
2020/09/22 00:49:16;;;;;;;17.35;15.6;;;;;;;12.88;85.6084;94964.37;;;;
2020/09/22 00:50:17;;;;;;;17.35;15.6;;;;;;;12.88;85.6084;94964.37;;;;
2020/09/22 00:51:17;;;;;;;17.35;15.6;;;;;;;12.88;85.6084;94964.37;;;;
2020/09/22 00:52:18;;;;;;;17.35;15.6;;;;;;;12.88;85.6084;94964.37;;;;
2020/09/22 00:53:19;;;;;;;17.35;15.6;;;;;;;12.88;85.6084;94964.37;;;;
2020/09/22 00:54:19;;;;;;;17.35;15.6;;;;;;;12.88;85.6084;94964.37;;;;
2020/09/22 00:55:21;;;;;;;17.35;15.6;;;;;;;12.88;85.6084;94964.37;;;;
2020/09/22 00:56:21;;;;;;;17.35;15.6;;;;;;;12.88;85.6084;94964.37;;;;
2020/09/22 00:57:22;;;;;;;17.35;15.6;;;;;;;12.88;85.6084;94964.37;;;;
2020/09/22 00:58:22;;;;;;;17.35;15.6;;;;;;;12.88;85.6084;94964.37;;;;
2020/09/22 00:59:23;;;;;;;17.65;15.2;;;;;;;12.76;86.02539;94953.69;;;;
2020/09/22 01:00:23;;;;;;;17.65;15.2;;;;;;;12.76;86.02539;94953.69;;;;
2020/09/22 01:01:24;;;;;;;17.65;15.2;;;;;;;12.76;86.02539;94953.69;;;;
2020/09/22 01:02:24;;;;;;;17.65;15.2;;;;;;;12.76;86.02539;94953.69;;;;
2020/09/22 01:03:25;;;;;;;17.65;15.2;;;;;;;12.76;86.02539;94953.69;;;;
2020/09/22 01:04:25;;;;;;;17.65;15.2;;;;;;;12.76;86.02539;94953.69;;;;
2020/09/22 01:05:26;;;;;;;17.65;15.2;;;;;;;12.76;86.02539;94953.69;;;;
2020/09/22 01:06:26;;;;;;;17.65;15.2;;;;;;;12.76;86.02539;94953.69;;;;
2020/09/22 01:07:27;;;;;;;17.65;15.2;;;;;;;12.76;86.02539;94953.69;;;;
2020/09/22 01:08:27;;;;;;;17.65;15.2;;;;;;;12.76;86.02539;94953.69;;;;
2020/09/22 01:09:28;;;;;;;16.3;14.6;;;;;;;12.7;86.41992;94949.84;;;;
2020/09/22 01:10:29;;;;;;;16.3;14.6;;;;;;;12.7;86.41992;94949.84;;;;
2020/09/22 01:11:29;;;;;;;16.3;14.6;;;;;;;12.7;86.41992;94949.84;;;;
2020/09/22 01:12:30;;;;;;;16.3;14.6;;;;;;;12.7;86.41992;94949.84;;;;
2020/09/22 01:13:30;;;;;;;16.3;14.6;;;;;;;12.7;86.41992;94949.84;;;;
2020/09/22 01:14:31;;;;;;;16.3;14.6;;;;;;;12.7;86.41992;94949.84;;;;
2020/09/22 01:15:31;;;;;;;16.3;14.6;;;;;;;12.7;86.41992;94949.84;;;;
2020/09/22 01:16:32;;;;;;;16.3;14.6;;;;;;;12.7;86.41992;94949.84;;;;
2020/09/22 01:17:32;;;;;;;16.3;14.6;;;;;;;12.7;86.41992;94949.84;;;;
2020/09/22 01:18:33;;;;;;;16.3;14.6;;;;;;;12.7;86.41992;94949.84;;;;
2020/09/22 01:19:33;;;;;;;16.3;14.6;;;;;;;12.7;86.41992;94949.84;;;;
2020/09/22 01:20:34;;;;;;;16.85;15.05;;;;;;;12.59;86.86035;94943.11;;;;
2020/09/22 01:21:35;;;;;;;16.85;15.05;;;;;;;12.59;86.86035;94943.11;;;;
2020/09/22 01:22:35;;;;;;;16.85;15.05;;;;;;;12.59;86.86035;94943.11;;;;
2020/09/22 01:23:36;;;;;;;16.85;15.05;;;;;;;12.59;86.86035;94943.11;;;;
2020/09/22 01:24:36;;;;;;;16.85;15.05;;;;;;;12.59;86.86035;94943.11;;;;
2020/09/22 01:25:37;;;;;;;16.85;15.05;;;;;;;12.59;86.86035;94943.11;;;;
2020/09/22 01:26:37;;;;;;;16.85;15.05;;;;;;;12.59;86.86035;94943.11;;;;
2020/09/22 01:27:38;;;;;;;16.85;15.05;;;;;;;12.59;86.86035;94943.11;;;;
2020/09/22 01:28:38;;;;;;;16.85;15.05;;;;;;;12.59;86.86035;94943.11;;;;
2020/09/22 01:29:39;;;;;;;16.85;15.05;;;;;;;12.59;86.86035;94943.11;;;;
2020/09/22 01:30:39;;;;;;;17.4;15.6;;;;;;;12.55;87.20605;94955;;;;
2020/09/22 01:31:40;;;;;;;17.4;15.6;;;;;;;12.55;87.20605;94955;;;;
2020/09/22 01:32:40;;;;;;;17.4;15.6;;;;;;;12.55;87.20605;94955;;;;
2020/09/22 01:33:41;;;;;;;17.4;15.6;;;;;;;12.55;87.20605;94955;;;;
2020/09/22 01:34:42;;;;;;;17.4;15.6;;;;;;;12.55;87.20605;94955;;;;
2020/09/22 01:35:42;;;;;;;17.4;15.6;;;;;;;12.55;87.20605;94955;;;;
2020/09/22 01:36:43;;;;;;;17.4;15.6;;;;;;;12.55;87.20605;94955;;;;
2020/09/22 01:37:43;;;;;;;17.4;15.6;;;;;;;12.55;87.20605;94955;;;;
2020/09/22 01:38:43;;;;;;;17.4;15.6;;;;;;;12.55;87.20605;94955;;;;
2020/09/22 01:39:44;;;;;;;17.4;15.6;;;;;;;12.55;87.20605;94955;;;;
2020/09/22 01:40:45;;;;;;;17.4;15.6;;;;;;;12.55;87.20605;94955;;;;
2020/09/22 01:41:45;;;;;;;17;14.9;;;;;;;12.43;87.61035;94953.92;;;;
2020/09/22 01:42:46;;;;;;;17;14.9;;;;;;;12.43;87.61035;94953.92;;;;
2020/09/22 01:43:46;;;;;;;17;14.9;;;;;;;12.43;87.61035;94953.92;;;;
2020/09/22 01:44:47;;;;;;;17;14.9;;;;;;;12.43;87.61035;94953.92;;;;
2020/09/22 01:45:48;;;;;;;17;14.9;;;;;;;12.43;87.61035;94953.92;;;;
2020/09/22 01:46:50;;;;;;;17;14.9;;;;;;;12.43;87.61035;94953.92;;;;
2020/09/22 01:47:51;;;;;;;17;14.9;;;;;;;12.43;87.61035;94953.92;;;;
2020/09/22 01:48:51;;;;;;;17;14.9;;;;;;;12.43;87.61035;94953.92;;;;
2020/09/22 01:49:52;;;;;;;17;14.9;;;;;;;12.43;87.61035;94953.92;;;;
2020/09/22 01:50:52;;;;;;;17;14.9;;;;;;;12.43;87.61035;94953.92;;;;
2020/09/22 01:51:52;;;;;;;16.35;14.75;;;;;;;12.37;87.94141;94950.34;;;;
2020/09/22 01:52:53;;;;;;;16.35;14.75;;;;;;;12.37;87.94141;94950.34;;;;
2020/09/22 01:53:53;;;;;;;16.35;14.75;;;;;;;12.37;87.94141;94950.34;;;;
2020/09/22 01:54:54;;;;;;;16.35;14.75;;;;;;;12.37;87.94141;94950.34;;;;
2020/09/22 01:55:54;;;;;;;16.35;14.75;;;;;;;12.37;87.94141;94950.34;;;;
2020/09/22 01:56:55;;;;;;;16.35;14.75;;;;;;;12.37;87.94141;94950.34;;;;
2020/09/22 01:57:55;;;;;;;16.35;14.75;;;;;;;12.37;87.94141;94950.34;;;;
2020/09/22 01:58:56;;;;;;;16.35;14.75;;;;;;;12.37;87.94141;94950.34;;;;
2020/09/22 01:59:56;;;;;;;16.35;14.75;;;;;;;12.37;87.94141;94950.34;;;;
2020/09/22 02:00:57;;;;;;;16.35;14.75;;;;;;;12.37;87.94141;94950.34;;;;
2020/09/22 02:01:57;;;;;;;16.35;14.75;;;;;;;12.37;87.94141;94950.34;;;;
2020/09/22 02:02:58;;;;;;;15.6;14.05;;;;;;;12.29;88.2666;94944.55;;;;
2020/09/22 02:03:58;;;;;;;15.6;14.05;;;;;;;12.29;88.2666;94944.55;;;;
2020/09/22 02:04:59;;;;;;;15.6;14.05;;;;;;;12.29;88.2666;94944.55;;;;
2020/09/22 02:05:59;;;;;;;15.6;14.05;;;;;;;12.29;88.2666;94944.55;;;;
2020/09/22 02:07:00;;;;;;;15.6;14.05;;;;;;;12.29;88.2666;94944.55;;;;
2020/09/22 02:08:00;;;;;;;15.6;14.05;;;;;;;12.29;88.2666;94944.55;;;;
2020/09/22 02:09:01;;;;;;;15.6;14.05;;;;;;;12.29;88.2666;94944.55;;;;
2020/09/22 02:10:02;;;;;;;15.6;14.05;;;;;;;12.29;88.2666;94944.55;;;;
2020/09/22 02:11:03;;;;;;;15.6;14.05;;;;;;;12.29;88.2666;94944.55;;;;
2020/09/22 02:12:03;;;;;;;15.6;14.05;;;;;;;12.29;88.2666;94944.55;;;;
2020/09/22 02:13:04;;;;;;;15.6;14.05;;;;;;;12.29;88.2666;94944.55;;;;
2020/09/22 02:14:04;;;;;;;15.55;14;;;;;;;12.25;88.6123;94945.17;;;;
2020/09/22 02:15:05;;;;;;;15.55;14;;;;;;;12.25;88.6123;94945.17;;;;
2020/09/22 02:16:05;;;;;;;15.55;14;;;;;;;12.25;88.6123;94945.17;;;;
2020/09/22 02:17:06;;;;;;;15.55;14;;;;;;;12.25;88.6123;94945.17;;;;
2020/09/22 02:18:06;;;;;;;15.55;14;;;;;;;12.25;88.6123;94945.17;;;;
2020/09/22 02:19:07;;;;;;;15.55;14;;;;;;;12.25;88.6123;94945.17;;;;
2020/09/22 02:20:07;;;;;;;15.55;14;;;;;;;12.25;88.6123;94945.17;;;;
2020/09/22 02:21:08;;;;;;;15.55;14;;;;;;;12.25;88.6123;94945.17;;;;
2020/09/22 02:22:08;;;;;;;15.55;14;;;;;;;12.25;88.6123;94945.17;;;;
2020/09/22 02:23:09;;;;;;;15.55;14;;;;;;;12.25;88.6123;94945.17;;;;
2020/09/22 02:24:09;;;;;;;16.2;14.5;;;;;;;12.16;88.92676;94952.53;;;;
2020/09/22 02:25:10;;;;;;;16.2;14.5;;;;;;;12.16;88.92676;94952.53;;;;
2020/09/22 02:26:10;;;;;;;16.2;14.5;;;;;;;12.16;88.92676;94952.53;;;;
2020/09/22 02:27:11;;;;;;;16.2;14.5;;;;;;;12.16;88.92676;94952.53;;;;
2020/09/22 02:28:11;;;;;;;16.2;14.5;;;;;;;12.16;88.92676;94952.53;;;;
2020/09/22 02:29:12;;;;;;;16.2;14.5;;;;;;;12.16;88.92676;94952.53;;;;
2020/09/22 02:30:12;;;;;;;16.2;14.5;;;;;;;12.16;88.92676;94952.53;;;;
2020/09/22 02:31:13;;;;;;;16.2;14.5;;;;;;;12.16;88.92676;94952.53;;;;
2020/09/22 02:32:13;;;;;;;16.2;14.5;;;;;;;12.16;88.92676;94952.53;;;;
2020/09/22 02:33:14;;;;;;;16.2;14.5;;;;;;;12.16;88.92676;94952.53;;;;
2020/09/22 02:34:14;;;;;;;16.2;14.5;;;;;;;12.16;88.92676;94952.53;;;;
2020/09/22 02:35:15;;;;;;;15.65;14.05;;;;;;;12.15;89.26465;94956.84;;;;
2020/09/22 02:36:15;;;;;;;15.65;14.05;;;;;;;12.15;89.26465;94956.84;;;;
2020/09/22 02:37:16;;;;;;;15.65;14.05;;;;;;;12.15;89.26465;94956.84;;;;
2020/09/22 02:38:16;;;;;;;15.65;14.05;;;;;;;12.15;89.26465;94956.84;;;;
2020/09/22 02:39:17;;;;;;;15.65;14.05;;;;;;;12.15;89.26465;94956.84;;;;
2020/09/22 02:40:17;;;;;;;15.65;14.05;;;;;;;12.15;89.26465;94956.84;;;;
2020/09/22 02:41:18;;;;;;;15.65;14.05;;;;;;;12.15;89.26465;94956.84;;;;
2020/09/22 02:42:18;;;;;;;15.65;14.05;;;;;;;12.15;89.26465;94956.84;;;;
2020/09/22 02:43:19;;;;;;;15.65;14.05;;;;;;;12.15;89.26465;94956.84;;;;
2020/09/22 02:44:19;;;;;;;15.65;14.05;;;;;;;12.15;89.26465;94956.84;;;;
2020/09/22 02:45:20;;;;;;;15.65;14.1;;;;;;;12.05;89.56641;94949.98;;;;
2020/09/22 02:46:20;;;;;;;15.65;14.1;;;;;;;12.05;89.56641;94949.98;;;;
2020/09/22 02:47:21;;;;;;;15.65;14.1;;;;;;;12.05;89.56641;94949.98;;;;
2020/09/22 02:48:21;;;;;;;15.65;14.1;;;;;;;12.05;89.56641;94949.98;;;;
2020/09/22 02:49:22;;;;;;;15.65;14.1;;;;;;;12.05;89.56641;94949.98;;;;
2020/09/22 02:50:22;;;;;;;15.65;14.1;;;;;;;12.05;89.56641;94949.98;;;;
2020/09/22 02:51:23;;;;;;;15.65;14.1;;;;;;;12.05;89.56641;94949.98;;;;
2020/09/22 02:52:23;;;;;;;15.65;14.1;;;;;;;12.05;89.56641;94949.98;;;;
2020/09/22 02:53:24;;;;;;;15.65;14.1;;;;;;;12.05;89.56641;94949.98;;;;
2020/09/22 02:54:24;;;;;;;15.65;14.1;;;;;;;12.05;89.56641;94949.98;;;;
2020/09/22 02:55:25;;;;;;;15.65;14.1;;;;;;;12.05;89.56641;94949.98;;;;
2020/09/22 02:56:25;;;;;;;15.1;13.55;;;;;;;12.02;89.91309;94961.17;;;;
2020/09/22 02:57:26;;;;;;;15.1;13.55;;;;;;;12.02;89.91309;94961.17;;;;
2020/09/22 02:58:26;;;;;;;15.1;13.55;;;;;;;12.02;89.91309;94961.17;;;;
2020/09/22 02:59:27;;;;;;;15.1;13.55;;;;;;;12.02;89.91309;94961.17;;;;
2020/09/22 03:00:27;;;;;;;15.1;13.55;;;;;;;12.02;89.91309;94961.17;;;;
2020/09/22 03:01:28;;;;;;;15.1;13.55;;;;;;;12.02;89.91309;94961.17;;;;
2020/09/22 03:02:28;;;;;;;15.1;13.55;;;;;;;12.02;89.91309;94961.17;;;;
2020/09/22 03:03:29;;;;;;;15.1;13.55;;;;;;;12.02;89.91309;94961.17;;;;
2020/09/22 03:04:29;;;;;;;15.1;13.55;;;;;;;12.02;89.91309;94961.17;;;;
2020/09/22 03:05:30;;;;;;;15.1;13.55;;;;;;;12.02;89.91309;94961.17;;;;
2020/09/22 03:06:30;;;;;;;14.75;13.25;;;;;;;11.94;90.19531;94963.51;;;;
2020/09/22 03:07:31;;;;;;;14.75;13.25;;;;;;;11.94;90.19531;94963.51;;;;
2020/09/22 03:08:31;;;;;;;14.75;13.25;;;;;;;11.94;90.19531;94963.51;;;;
2020/09/22 03:09:32;;;;;;;14.75;13.25;;;;;;;11.94;90.19531;94963.51;;;;
2020/09/22 03:10:32;;;;;;;14.75;13.25;;;;;;;11.94;90.19531;94963.51;;;;
2020/09/22 03:11:33;;;;;;;14.75;13.25;;;;;;;11.94;90.19531;94963.51;;;;
2020/09/22 03:12:33;;;;;;;14.75;13.25;;;;;;;11.94;90.19531;94963.51;;;;
2020/09/22 03:13:34;;;;;;;14.75;13.25;;;;;;;11.94;90.19531;94963.51;;;;
2020/09/22 03:14:34;;;;;;;14.75;13.25;;;;;;;11.94;90.19531;94963.51;;;;
2020/09/22 03:15:35;;;;;;;14.75;13.25;;;;;;;11.94;90.19531;94963.51;;;;
2020/09/22 03:16:42;;;;;;;14.75;13.25;;;;;;;11.94;90.19531;94963.51;;;;
2020/09/22 03:17:42;;;;;;;15.05;13.55;;;;;;;11.92;90.52246;94967;;;;
2020/09/22 03:18:43;;;;;;;15.05;13.55;;;;;;;11.92;90.52246;94967;;;;
2020/09/22 03:19:43;;;;;;;15.05;13.55;;;;;;;11.92;90.52246;94967;;;;
2020/09/22 03:20:44;;;;;;;15.05;13.55;;;;;;;11.92;90.52246;94967;;;;
2020/09/22 03:21:46;;;;;;;15.05;13.55;;;;;;;11.92;90.52246;94967;;;;
2020/09/22 03:22:46;;;;;;;15.05;13.55;;;;;;;11.92;90.52246;94967;;;;
2020/09/22 03:23:47;;;;;;;15.05;13.55;;;;;;;11.92;90.52246;94967;;;;
2020/09/22 03:24:47;;;;;;;15.05;13.55;;;;;;;11.92;90.52246;94967;;;;
2020/09/22 03:25:48;;;;;;;15.05;13.55;;;;;;;11.92;90.52246;94967;;;;
2020/09/22 03:26:48;;;;;;;15.05;13.55;;;;;;;11.92;90.52246;94967;;;;
2020/09/22 03:27:49;;;;;;;15.5;13.9;;;;;;;11.83;90.8252;94966.63;;;;
2020/09/22 03:28:50;;;;;;;15.5;13.9;;;;;;;11.83;90.8252;94966.63;;;;
2020/09/22 03:29:50;;;;;;;15.5;13.9;;;;;;;11.83;90.8252;94966.63;;;;
2020/09/22 03:30:51;;;;;;;15.5;13.9;;;;;;;11.83;90.8252;94966.63;;;;
2020/09/22 03:31:51;;;;;;;15.5;13.9;;;;;;;11.83;90.8252;94966.63;;;;
2020/09/22 03:32:52;;;;;;;15.5;13.9;;;;;;;11.83;90.8252;94966.63;;;;
2020/09/22 03:33:52;;;;;;;15.5;13.9;;;;;;;11.83;90.8252;94966.63;;;;
2020/09/22 03:34:53;;;;;;;15.5;13.9;;;;;;;11.83;90.8252;94966.63;;;;
2020/09/22 03:35:53;;;;;;;15.5;13.9;;;;;;;11.83;90.8252;94966.63;;;;
2020/09/22 03:36:54;;;;;;;15.5;13.9;;;;;;;11.83;90.8252;94966.63;;;;
2020/09/22 03:37:55;;;;;;;15.5;13.9;;;;;;;11.83;90.8252;94966.63;;;;
2020/09/22 03:38:55;;;;;;;14.15;12.75;;;;;;;11.83;91.10059;94962.16;;;;
2020/09/22 03:39:56;;;;;;;14.15;12.75;;;;;;;11.83;91.10059;94962.16;;;;
2020/09/22 03:40:56;;;;;;;14.15;12.75;;;;;;;11.83;91.10059;94962.16;;;;
2020/09/22 03:41:57;;;;;;;14.15;12.75;;;;;;;11.83;91.10059;94962.16;;;;
2020/09/22 03:42:57;;;;;;;14.15;12.75;;;;;;;11.83;91.10059;94962.16;;;;
2020/09/22 03:43:58;;;;;;;14.15;12.75;;;;;;;11.83;91.10059;94962.16;;;;
2020/09/22 03:44:59;;;;;;;14.15;12.75;;;;;;;11.83;91.10059;94962.16;;;;
2020/09/22 03:46:00;;;;;;;14.15;12.75;;;;;;;11.83;91.10059;94962.16;;;;
2020/09/22 03:47:01;;;;;;;14.15;12.75;;;;;;;11.83;91.10059;94962.16;;;;
2020/09/22 03:48:02;;;;;;;14.15;12.75;;;;;;;11.83;91.10059;94962.16;;;;
2020/09/22 03:49:02;;;;;;;14.15;12.75;;;;;;;11.83;91.10059;94962.16;;;;
2020/09/22 03:50:03;;;;;;;15.45;13.9;;;;;;;11.76;91.30078;94958.4;;;;
2020/09/22 03:51:03;;;;;;;15.45;13.9;;;;;;;11.76;91.30078;94958.4;;;;
2020/09/22 03:52:04;;;;;;;15.45;13.9;;;;;;;11.76;91.30078;94958.4;;;;
2020/09/22 03:53:05;;;;;;;15.45;13.9;;;;;;;11.76;91.30078;94958.4;;;;
2020/09/22 03:54:05;;;;;;;15.45;13.9;;;;;;;11.76;91.30078;94958.4;;;;
2020/09/22 03:55:22;;;;;;;15.45;13.9;;;;;;;11.76;91.30078;94958.4;;;;
2020/09/22 03:56:23;;;;;;;15.45;13.9;;;;;;;11.76;91.30078;94958.4;;;;
2020/09/22 03:57:25;;;;;;;15.45;13.9;;;;;;;11.76;91.30078;94958.4;;;;
2020/09/22 03:58:27;;;;;;;15.45;13.9;;;;;;;11.76;91.30078;94958.4;;;;
2020/09/22 03:59:27;;;;;;;15.45;13.9;;;;;;;11.76;91.30078;94958.4;;;;
2020/09/22 04:00:28;;;;;;;13.7;12.3;;;;;;;11.74;91.64844;94957.31;;;;
2020/09/22 04:01:29;;;;;;;13.7;12.3;;;;;;;11.74;91.64844;94957.31;;;;
2020/09/22 04:02:30;;;;;;;13.7;12.3;;;;;;;11.74;91.64844;94957.31;;;;
2020/09/22 04:03:37;;;;;;;13.7;12.3;;;;;;;11.74;91.64844;94957.31;;;;
2020/09/22 04:04:38;;;;;;;13.7;12.3;;;;;;;11.74;91.64844;94957.31;;;;
2020/09/22 04:05:43;;;;;;;13.7;12.3;;;;;;;11.74;91.64844;94957.31;;;;
2020/09/22 04:06:44;;;;;;;13.7;12.3;;;;;;;11.74;91.64844;94957.31;;;;
2020/09/22 04:07:44;;;;;;;13.7;12.3;;;;;;;11.74;91.64844;94957.31;;;;
2020/09/22 04:08:44;;;;;;;13.7;12.3;;;;;;;11.74;91.64844;94957.31;;;;
2020/09/22 04:09:46;;;;;;;13.7;12.3;;;;;;;11.74;91.64844;94957.31;;;;
2020/09/22 04:10:47;;;;;;;14.45;13.05;;;;;;;11.65;91.875;94946.23;;;;
2020/09/22 04:11:53;;;;;;;14.45;13.05;;;;;;;11.65;91.875;94946.23;;;;
2020/09/22 04:12:54;;;;;;;14.45;13.05;;;;;;;11.65;91.875;94946.23;;;;
2020/09/22 04:13:55;;;;;;;14.45;13.05;;;;;;;11.65;91.875;94946.23;;;;
2020/09/22 04:14:58;;;;;;;14.45;13.05;;;;;;;11.65;91.875;94946.23;;;;
2020/09/22 04:15:59;;;;;;;14.45;13.05;;;;;;;11.65;91.875;94946.23;;;;
2020/09/22 04:17:09;;;;;;;14.45;13.05;;;;;;;11.65;91.875;94946.23;;;;
2020/09/22 04:18:09;;;;;;;14.45;13.05;;;;;;;11.65;91.875;94946.23;;;;
2020/09/22 04:19:11;;;;;;;14.45;13.05;;;;;;;11.65;91.875;94946.23;;;;
2020/09/22 04:20:11;;;;;;;14.45;13.05;;;;;;;11.65;91.875;94946.23;;;;
2020/09/22 04:21:12;;;;;;;14.6;13.15;;;;;;;11.62;92.2334;94945.73;;;;
2020/09/22 04:22:13;;;;;;;14.6;13.15;;;;;;;11.62;92.2334;94945.73;;;;
2020/09/22 04:23:16;;;;;;;14.6;13.15;;;;;;;11.62;92.2334;94945.73;;;;
2020/09/22 04:24:17;;;;;;;14.6;13.15;;;;;;;11.62;92.2334;94945.73;;;;
2020/09/22 04:25:22;;;;;;;14.6;13.15;;;;;;;11.62;92.2334;94945.73;;;;
2020/09/22 04:26:22;;;;;;;14.6;13.15;;;;;;;11.62;92.2334;94945.73;;;;
2020/09/22 04:27:31;;;;;;;14.6;13.15;;;;;;;11.62;92.2334;94945.73;;;;
2020/09/22 04:28:32;;;;;;;14.6;13.15;;;;;;;11.62;92.2334;94945.73;;;;
2020/09/22 04:29:33;;;;;;;14.6;13.15;;;;;;;11.62;92.2334;94945.73;;;;
2020/09/22 04:30:44;;;;;;;14.6;13.15;;;;;;;11.62;92.2334;94945.73;;;;
2020/09/22 04:31:44;;;;;;;14.6;13.15;;;;;;;11.62;92.2334;94945.73;;;;
2020/09/22 04:32:46;;;;;;;16.65;14.9;;;;;;;11.53;92.5332;94947.66;;;;
2020/09/22 04:33:51;;;;;;;16.65;14.9;;;;;;;11.53;92.5332;94947.66;;;;
2020/09/22 04:34:52;;;;;;;16.65;14.9;;;;;;;11.53;92.5332;94947.66;;;;
2020/09/22 04:35:57;;;;;;;16.65;14.9;;;;;;;11.53;92.5332;94947.66;;;;
2020/09/22 04:37:02;;;;;;;16.65;14.9;;;;;;;11.53;92.5332;94947.66;;;;
2020/09/22 04:38:02;;;;;;;16.65;14.9;;;;;;;11.53;92.5332;94947.66;;;;
2020/09/22 04:39:10;;;;;;;16.65;14.9;;;;;;;11.53;92.5332;94947.66;;;;
2020/09/22 04:40:11;;;;;;;16.65;14.9;;;;;;;11.53;92.5332;94947.66;;;;
2020/09/22 04:41:14;;;;;;;16.65;14.9;;;;;;;11.53;92.5332;94947.66;;;;
2020/09/22 04:42:14;;;;;;;16.65;14.9;;;;;;;11.53;92.5332;94947.66;;;;
2020/09/22 04:43:15;;;;;;;17.1;14.2;;;;;;;11.51;92.80664;94951.68;;;;
2020/09/22 04:44:16;;;;;;;17.1;14.2;;;;;;;11.51;92.80664;94951.68;;;;
2020/09/22 04:45:17;;;;;;;17.1;14.2;;;;;;;11.51;92.80664;94951.68;;;;
2020/09/22 04:46:17;;;;;;;17.1;14.2;;;;;;;11.51;92.80664;94951.68;;;;
2020/09/22 04:47:18;;;;;;;17.1;14.2;;;;;;;11.51;92.80664;94951.68;;;;
2020/09/22 04:48:20;;;;;;;17.1;14.2;;;;;;;11.51;92.80664;94951.68;;;;
2020/09/22 04:49:21;;;;;;;17.1;14.2;;;;;;;11.51;92.80664;94951.68;;;;
2020/09/22 04:50:22;;;;;;;17.1;14.2;;;;;;;11.51;92.80664;94951.68;;;;
2020/09/22 04:51:23;;;;;;;17.1;14.2;;;;;;;11.51;92.80664;94951.68;;;;
2020/09/22 04:52:23;;;;;;;17.1;14.2;;;;;;;11.51;92.80664;94951.68;;;;
2020/09/22 04:53:24;;;;;;;14.55;13.05;;;;;;;11.43;93.08594;94955.75;;;;
2020/09/22 04:54:25;;;;;;;14.55;13.05;;;;;;;11.43;93.08594;94955.75;;;;
2020/09/22 04:55:26;;;;;;;14.55;13.05;;;;;;;11.43;93.08594;94955.75;;;;
2020/09/22 04:56:26;;;;;;;14.55;13.05;;;;;;;11.43;93.08594;94955.75;;;;
2020/09/22 04:57:27;;;;;;;14.55;13.05;;;;;;;11.43;93.08594;94955.75;;;;
2020/09/22 04:58:27;;;;;;;14.55;13.05;;;;;;;11.43;93.08594;94955.75;;;;
2020/09/22 04:59:29;;;;;;;14.55;13.05;;;;;;;11.43;93.08594;94955.75;;;;
2020/09/22 05:00:29;;;;;;;14.55;13.05;;;;;;;11.43;93.08594;94955.75;;;;
2020/09/22 05:01:30;;;;;;;14.55;13.05;;;;;;;11.43;93.08594;94955.75;;;;
2020/09/22 05:02:32;;;;;;;14.55;13.05;;;;;;;11.43;93.08594;94955.75;;;;
2020/09/22 05:03:33;;;;;;;14.55;13.05;;;;;;;11.43;93.08594;94955.75;;;;
2020/09/22 05:04:33;;;;;;;15.1;13.55;;;;;;;11.55;93.51855;94957.83;;;;
2020/09/22 05:05:34;;;;;;;15.1;13.55;;;;;;;11.55;93.51855;94957.83;;;;
2020/09/22 05:06:35;;;;;;;15.1;13.55;;;;;;;11.55;93.51855;94957.83;;;;
2020/09/22 05:07:35;;;;;;;15.1;13.55;;;;;;;11.55;93.51855;94957.83;;;;
2020/09/22 05:08:36;;;;;;;15.1;13.55;;;;;;;11.55;93.51855;94957.83;;;;
2020/09/22 05:09:36;;;;;;;15.1;13.55;;;;;;;11.55;93.51855;94957.83;;;;
2020/09/22 05:10:37;;;;;;;15.1;13.55;;;;;;;11.55;93.51855;94957.83;;;;
2020/09/22 05:11:37;;;;;;;15.1;13.55;;;;;;;11.55;93.51855;94957.83;;;;
2020/09/22 05:12:38;;;;;;;15.1;13.55;;;;;;;11.55;93.51855;94957.83;;;;
2020/09/22 05:13:38;;;;;;;15.1;13.55;;;;;;;11.55;93.51855;94957.83;;;;
2020/09/22 05:14:39;;;;;;;15.95;14.2;;;;;;;11.74;93.77246;94959.19;;;;
2020/09/22 05:15:39;;;;;;;15.95;14.2;;;;;;;11.74;93.77246;94959.19;;;;
2020/09/22 05:16:40;;;;;;;15.95;14.2;;;;;;;11.74;93.77246;94959.19;;;;
2020/09/22 05:17:40;;;;;;;15.95;14.2;;;;;;;11.74;93.77246;94959.19;;;;
2020/09/22 05:18:41;;;;;;;15.95;14.2;;;;;;;11.74;93.77246;94959.19;;;;
2020/09/22 05:19:41;;;;;;;15.95;14.2;;;;;;;11.74;93.77246;94959.19;;;;
2020/09/22 05:20:42;;;;;;;15.95;14.2;;;;;;;11.74;93.77246;94959.19;;;;
2020/09/22 05:21:42;;;;;;;15.95;14.2;;;;;;;11.74;93.77246;94959.19;;;;
2020/09/22 05:22:43;;;;;;;15.95;14.2;;;;;;;11.74;93.77246;94959.19;;;;
2020/09/22 05:23:43;;;;;;;15.95;14.2;;;;;;;11.74;93.77246;94959.19;;;;
2020/09/22 05:24:44;;;;;;;15.95;14.2;;;;;;;11.74;93.77246;94959.19;;;;
2020/09/22 05:25:44;;;;;;;14.65;13.1;;;;;;;11.97;93.91699;94964.76;;;;
2020/09/22 05:26:45;;;;;;;14.65;13.1;;;;;;;11.97;93.91699;94964.76;;;;
2020/09/22 05:27:45;;;;;;;14.65;13.1;;;;;;;11.97;93.91699;94964.76;;;;
2020/09/22 05:28:46;;;;;;;14.65;13.1;;;;;;;11.97;93.91699;94964.76;;;;
2020/09/22 05:29:46;;;;;;;14.65;13.1;;;;;;;11.97;93.91699;94964.76;;;;
2020/09/22 05:30:47;;;;;;;14.65;13.1;;;;;;;11.97;93.91699;94964.76;;;;
2020/09/22 05:31:47;;;;;;;14.65;13.1;;;;;;;11.97;93.91699;94964.76;;;;
2020/09/22 05:32:48;;;;;;;14.65;13.1;;;;;;;11.97;93.91699;94964.76;;;;
2020/09/22 05:33:48;;;;;;;14.65;13.1;;;;;;;11.97;93.91699;94964.76;;;;
2020/09/22 05:34:49;;;;;;;14.65;13.1;;;;;;;11.97;93.91699;94964.76;;;;
2020/09/22 05:35:49;;;;;;;16;12.65;;;;;;;12.16;94.08496;94958.08;;;;
2020/09/22 05:36:50;;;;;;;16;12.65;;;;;;;12.16;94.08496;94958.08;;;;
2020/09/22 05:37:50;;;;;;;16;12.65;;;;;;;12.16;94.08496;94958.08;;;;
2020/09/22 05:38:51;;;;;;;16;12.65;;;;;;;12.16;94.08496;94958.08;;;;
2020/09/22 05:39:51;;;;;;;16;12.65;;;;;;;12.16;94.08496;94958.08;;;;
2020/09/22 05:40:51;;;;;;;16;12.65;;;;;;;12.16;94.08496;94958.08;;;;
2020/09/22 05:41:52;;;;;;;16;12.65;;;;;;;12.16;94.08496;94958.08;;;;
2020/09/22 05:42:52;;;;;;;16;12.65;;;;;;;12.16;94.08496;94958.08;;;;
2020/09/22 05:43:53;;;;;;;16;12.65;;;;;;;12.16;94.08496;94958.08;;;;